sensor_id;sensor_type;location;lat;lon;timestamp;pressure;altitude;pressure_sealevel;temperature;humidity
56400;BME280;42298;53.638;9.876;2023-06-19T00:01:29;101030.06;;;24.20;46.16
56400;BME280;42298;53.638;9.876;2023-06-19T00:03:55;101023.19;;;24.14;46.28
56400;BME280;42298;53.638;9.876;2023-06-19T00:06:20;101022.81;;;24.16;46.19
56400;BME280;42298;53.638;9.876;2023-06-19T00:08:46;101032.03;;;24.13;46.44
56400;BME280;42298;53.638;9.876;2023-06-19T00:11:11;101027.66;;;24.15;46.52
56400;BME280;42298;53.638;9.876;2023-06-19T00:13:36;101030.47;;;24.15;46.37
56400;BME280;42298;53.638;9.876;2023-06-19T00:16:02;101030.81;;;24.07;46.76
56400;BME280;42298;53.638;9.876;2023-06-19T00:18:28;101034.41;;;24.00;47.42
56400;BME280;42298;53.638;9.876;2023-06-19T00:20:53;101025.47;;;23.91;48.29
56400;BME280;42298;53.638;9.876;2023-06-19T00:23:22;101023.84;;;23.90;48.45
56400;BME280;42298;53.638;9.876;2023-06-19T00:25:48;101015.38;;;23.83;48.38
56400;BME280;42298;53.638;9.876;2023-06-19T00:28:13;101008.47;;;23.74;48.35
56400;BME280;42298;53.638;9.876;2023-06-19T00:30:40;101012.84;;;23.64;48.44
56400;BME280;42298;53.638;9.876;2023-06-19T00:33:07;101001.94;;;23.56;48.55
56400;BME280;42298;53.638;9.876;2023-06-19T00:35:34;100999.44;;;23.47;48.81
56400;BME280;42298;53.638;9.876;2023-06-19T00:38:00;100991.78;;;23.44;48.95
56400;BME280;42298;53.638;9.876;2023-06-19T00:40:31;100999.06;;;23.45;48.96
56400;BME280;42298;53.638;9.876;2023-06-19T00:42:58;100997.81;;;23.43;48.94
56400;BME280;42298;53.638;9.876;2023-06-19T00:45:25;101006.28;;;23.46;48.91
56400;BME280;42298;53.638;9.876;2023-06-19T00:47:54;100996.25;;;23.49;48.57
56400;BME280;42298;53.638;9.876;2023-06-19T00:50:21;100999.88;;;23.49;48.34
56400;BME280;42298;53.638;9.876;2023-06-19T00:52:46;100996.63;;;23.47;48.63
56400;BME280;42298;53.638;9.876;2023-06-19T00:55:12;100997.88;;;23.53;48.32
56400;BME280;42298;53.638;9.876;2023-06-19T00:57:39;100991.09;;;23.54;48.19
56400;BME280;42298;53.638;9.876;2023-06-19T01:00:05;100993.13;;;23.57;48.26
56400;BME280;42298;53.638;9.876;2023-06-19T01:02:35;100989.09;;;23.62;48.12
56400;BME280;42298;53.638;9.876;2023-06-19T01:05:01;100987.09;;;23.59;48.35
56400;BME280;42298;53.638;9.876;2023-06-19T01:10:20;100968.19;;;23.59;48.22
56400;BME280;42298;53.638;9.876;2023-06-19T01:12:54;100954.56;;;23.61;48.47
56400;BME280;42298;53.638;9.876;2023-06-19T01:15:22;100946.50;;;23.56;48.45
56400;BME280;42298;53.638;9.876;2023-06-19T01:17:49;100943.28;;;23.58;48.35
56400;BME280;42298;53.638;9.876;2023-06-19T01:20:16;100940.06;;;23.56;48.27
56400;BME280;42298;53.638;9.876;2023-06-19T01:22:41;100938.47;;;23.62;48.20
56400;BME280;42298;53.638;9.876;2023-06-19T01:25:09;100927.22;;;23.58;48.27
56400;BME280;42298;53.638;9.876;2023-06-19T01:27:37;100921.59;;;23.62;48.13
56400;BME280;42298;53.638;9.876;2023-06-19T01:30:03;100923.22;;;23.56;47.96
56400;BME280;42298;53.638;9.876;2023-06-19T01:32:36;100925.59;;;23.54;48.31
56400;BME280;42298;53.638;9.876;2023-06-19T01:35:07;100930.03;;;23.58;48.07
56400;BME280;42298;53.638;9.876;2023-06-19T01:37:34;100929.22;;;23.58;48.03
56400;BME280;42298;53.638;9.876;2023-06-19T01:40:02;100919.97;;;23.54;48.00
56400;BME280;42298;53.638;9.876;2023-06-19T01:42:29;100931.66;;;23.56;48.18
56400;BME280;42298;53.638;9.876;2023-06-19T01:44:56;100928.84;;;23.56;48.10
56400;BME280;42298;53.638;9.876;2023-06-19T01:47:22;100930.47;;;23.60;48.28
56400;BME280;42298;53.638;9.876;2023-06-19T01:49:48;100921.59;;;23.58;48.01
56400;BME280;42298;53.638;9.876;2023-06-19T01:52:14;100928.84;;;23.59;47.94
56400;BME280;42298;53.638;9.876;2023-06-19T01:54:41;100932.81;;;23.55;48.12
56400;BME280;42298;53.638;9.876;2023-06-19T01:57:06;100926.41;;;23.54;48.00
56400;BME280;42298;53.638;9.876;2023-06-19T01:59:32;100934.06;;;23.61;48.00
56400;BME280;42298;53.638;9.876;2023-06-19T02:01:57;100923.25;;;23.66;47.87
56400;BME280;42298;53.638;9.876;2023-06-19T02:04:23;100921.66;;;23.69;47.95
56400;BME280;42298;53.638;9.876;2023-06-19T02:06:49;100925.28;;;23.73;47.78
56400;BME280;42298;53.638;9.876;2023-06-19T02:09:14;100928.53;;;23.75;47.58
56400;BME280;42298;53.638;9.876;2023-06-19T02:11:39;100924.94;;;23.78;47.51
56400;BME280;42298;53.638;9.876;2023-06-19T02:14:06;100924.50;;;23.76;47.76
56400;BME280;42298;53.638;9.876;2023-06-19T02:16:31;100916.84;;;23.73;47.65
56400;BME280;42298;53.638;9.876;2023-06-19T02:18:57;100904.75;;;23.65;47.57
56400;BME280;42298;53.638;9.876;2023-06-19T02:21:22;100905.59;;;23.73;47.60
56400;BME280;42298;53.638;9.876;2023-06-19T02:23:48;100899.56;;;23.71;47.39
56400;BME280;42298;53.638;9.876;2023-06-19T02:26:13;100903.22;;;23.75;47.58
56400;BME280;42298;53.638;9.876;2023-06-19T02:28:39;100911.66;;;23.75;47.63
56400;BME280;42298;53.638;9.876;2023-06-19T02:31:04;100913.66;;;23.74;47.38
56400;BME280;42298;53.638;9.876;2023-06-19T02:33:29;100915.25;;;23.72;47.66
56400;BME280;42298;53.638;9.876;2023-06-19T02:35:55;100912.00;;;23.66;47.70
56400;BME280;42298;53.638;9.876;2023-06-19T02:38:24;100909.97;;;23.63;47.83
56400;BME280;42298;53.638;9.876;2023-06-19T02:40:50;100902.31;;;23.57;47.92
56400;BME280;42298;53.638;9.876;2023-06-19T02:43:15;100911.19;;;23.66;47.62
56400;BME280;42298;53.638;9.876;2023-06-19T02:45:40;100912.84;;;23.70;47.66
56400;BME280;42298;53.638;9.876;2023-06-19T02:48:06;100916.81;;;23.69;47.65
56400;BME280;42298;53.638;9.876;2023-06-19T02:50:31;100907.22;;;23.70;47.67
56400;BME280;42298;53.638;9.876;2023-06-19T02:52:56;100901.16;;;23.68;47.76
56400;BME280;42298;53.638;9.876;2023-06-19T02:55:22;100904.38;;;23.67;47.81
56400;BME280;42298;53.638;9.876;2023-06-19T02:57:47;100899.13;;;23.65;47.57
56400;BME280;42298;53.638;9.876;2023-06-19T03:00:13;100893.09;;;23.63;47.72
56400;BME280;42298;53.638;9.876;2023-06-19T03:02:38;100897.94;;;23.63;47.88
56400;BME280;42298;53.638;9.876;2023-06-19T03:05:10;100899.09;;;23.62;47.74
56400;BME280;42298;53.638;9.876;2023-06-19T03:07:35;100897.50;;;23.57;47.94
56400;BME280;42298;53.638;9.876;2023-06-19T03:10:01;100894.28;;;23.55;47.81
56400;BME280;42298;53.638;9.876;2023-06-19T03:12:26;100892.25;;;23.52;48.09
56400;BME280;42298;53.638;9.876;2023-06-19T03:14:53;100887.41;;;23.49;47.98
56400;BME280;42298;53.638;9.876;2023-06-19T03:17:18;100882.22;;;23.51;47.93
56400;BME280;42298;53.638;9.876;2023-06-19T03:19:43;100887.84;;;23.51;48.10
56400;BME280;42298;53.638;9.876;2023-06-19T03:22:09;100895.06;;;23.52;48.11
56400;BME280;42298;53.638;9.876;2023-06-19T03:24:35;100897.44;;;23.50;48.12
56400;BME280;42298;53.638;9.876;2023-06-19T03:27:01;100895.81;;;23.46;48.18
56400;BME280;42298;53.638;9.876;2023-06-19T03:29:27;100895.03;;;23.45;48.33
56400;BME280;42298;53.638;9.876;2023-06-19T03:31:53;100886.59;;;23.45;48.46
56400;BME280;42298;53.638;9.876;2023-06-19T03:34:18;100882.22;;;23.51;48.20
56400;BME280;42298;53.638;9.876;2023-06-19T03:36:43;100884.19;;;23.47;48.44
56400;BME280;42298;53.638;9.876;2023-06-19T03:39:09;100877.34;;;23.45;48.62
56400;BME280;42298;53.638;9.876;2023-06-19T03:41:34;100856.81;;;23.37;48.70
56400;BME280;42298;53.638;9.876;2023-06-19T03:43:59;100858.03;;;23.36;48.64
56400;BME280;42298;53.638;9.876;2023-06-19T03:46:26;100864.47;;;23.40;48.62
56400;BME280;42298;53.638;9.876;2023-06-19T03:48:51;100863.66;;;23.40;48.38
56400;BME280;42298;53.638;9.876;2023-06-19T03:51:16;100870.47;;;23.39;48.61
56400;BME280;42298;53.638;9.876;2023-06-19T03:53:42;100861.28;;;23.45;48.54
56400;BME280;42298;53.638;9.876;2023-06-19T03:56:08;100863.25;;;23.41;48.66
56400;BME280;42298;53.638;9.876;2023-06-19T03:58:34;100861.22;;;23.38;48.50
56400;BME280;42298;53.638;9.876;2023-06-19T04:00:59;100867.28;;;23.40;48.64
56400;BME280;42298;53.638;9.876;2023-06-19T04:03:24;100848.00;;;23.39;48.47
56400;BME280;42298;53.638;9.876;2023-06-19T04:05:51;100855.22;;;23.40;48.50
56400;BME280;42298;53.638;9.876;2023-06-19T04:08:16;100850.00;;;23.38;48.69
56400;BME280;42298;53.638;9.876;2023-06-19T04:10:41;100853.59;;;23.35;48.74
56400;BME280;42298;53.638;9.876;2023-06-19T04:13:07;100860.41;;;23.34;48.68
56400;BME280;42298;53.638;9.876;2023-06-19T04:15:33;100862.03;;;23.35;48.69
56400;BME280;42298;53.638;9.876;2023-06-19T04:17:59;100862.03;;;23.35;48.81
56400;BME280;42298;53.638;9.876;2023-06-19T04:20:26;100863.25;;;23.41;49.15
56400;BME280;42298;53.638;9.876;2023-06-19T04:22:51;100857.25;;;23.39;48.74
56400;BME280;42298;53.638;9.876;2023-06-19T04:25:18;100856.84;;;23.44;48.58
56400;BME280;42298;53.638;9.876;2023-06-19T04:27:43;100858.88;;;23.44;48.75
56400;BME280;42298;53.638;9.876;2023-06-19T04:30:11;100862.47;;;23.41;48.91
56400;BME280;42298;53.638;9.876;2023-06-19T04:32:36;100860.44;;;23.41;48.91
56400;BME280;42298;53.638;9.876;2023-06-19T04:35:09;100871.69;;;23.41;48.68
56400;BME280;42298;53.638;9.876;2023-06-19T04:37:34;100863.25;;;23.41;48.83
56400;BME280;42298;53.638;9.876;2023-06-19T04:39:59;100858.84;;;23.40;49.01
56400;BME280;42298;53.638;9.876;2023-06-19T04:42:26;100864.44;;;23.37;49.13
56400;BME280;42298;53.638;9.876;2023-06-19T04:44:52;100857.59;;;23.34;48.94
56400;BME280;42298;53.638;9.876;2023-06-19T04:47:19;100868.47;;;23.36;49.05
56400;BME280;42298;53.638;9.876;2023-06-19T04:49:45;100860.84;;;23.36;49.13
56400;BME280;42298;53.638;9.876;2023-06-19T04:52:10;100855.19;;;23.33;49.13
56400;BME280;42298;53.638;9.876;2023-06-19T04:54:38;100859.63;;;23.37;48.97
56400;BME280;42298;53.638;9.876;2023-06-19T04:57:03;100863.66;;;23.36;49.24
56400;BME280;42298;53.638;9.876;2023-06-19T04:59:30;100846.41;;;23.38;49.19
56400;BME280;42298;53.638;9.876;2023-06-19T05:01:56;100845.16;;;23.35;49.12
56400;BME280;42298;53.638;9.876;2023-06-19T05:04:21;100846.41;;;23.38;49.24
56400;BME280;42298;53.638;9.876;2023-06-19T05:06:48;100838.78;;;23.42;49.00
56400;BME280;42298;53.638;9.876;2023-06-19T05:09:17;100843.63;;;23.48;48.76
56400;BME280;42298;53.638;9.876;2023-06-19T05:11:42;100847.25;;;23.45;49.01
56400;BME280;42298;53.638;9.876;2023-06-19T05:14:07;100851.66;;;23.46;48.98
56400;BME280;42298;53.638;9.876;2023-06-19T05:16:37;100852.84;;;23.49;49.07
56400;BME280;42298;53.638;9.876;2023-06-19T05:19:02;100853.28;;;23.51;49.08
56400;BME280;42298;53.638;9.876;2023-06-19T05:21:27;100843.63;;;23.48;48.85
56400;BME280;42298;53.638;9.876;2023-06-19T05:23:53;100857.69;;;23.48;49.36
56400;BME280;42298;53.638;9.876;2023-06-19T05:26:19;100859.25;;;23.46;49.49
56400;BME280;42298;53.638;9.876;2023-06-19T05:28:45;100863.69;;;23.43;49.42
56400;BME280;42298;53.638;9.876;2023-06-19T05:31:11;100860.47;;;23.45;49.40
56400;BME280;42298;53.638;9.876;2023-06-19T05:33:36;100867.34;;;23.51;48.97
56400;BME280;42298;53.638;9.876;2023-06-19T05:36:02;100870.53;;;23.49;49.20
56400;BME280;42298;53.638;9.876;2023-06-19T05:38:27;100865.75;;;23.57;49.47
56400;BME280;42298;53.638;9.876;2023-06-19T05:40:55;100872.63;;;23.66;48.83
56400;BME280;42298;53.638;9.876;2023-06-19T05:43:21;100873.41;;;23.63;48.83
56400;BME280;42298;53.638;9.876;2023-06-19T05:45:48;100883.44;;;23.61;48.70
56400;BME280;42298;53.638;9.876;2023-06-19T05:48:14;100890.72;;;23.72;48.82
56400;BME280;42298;53.638;9.876;2023-06-19T05:50:40;100884.72;;;23.70;48.73
56400;BME280;42298;53.638;9.876;2023-06-19T05:53:06;100899.56;;;23.71;48.80
56400;BME280;42298;53.638;9.876;2023-06-19T05:55:31;100896.34;;;23.69;48.86
56400;BME280;42298;53.638;9.876;2023-06-19T05:57:57;100900.78;;;23.73;48.80
56400;BME280;42298;53.638;9.876;2023-06-19T06:00:22;100896.00;;;23.81;49.05
56400;BME280;42298;53.638;9.876;2023-06-19T06:02:48;100892.00;;;23.89;48.83
56400;BME280;42298;53.638;9.876;2023-06-19T06:05:14;100913.78;;;23.95;48.88
56400;BME280;42298;53.638;9.876;2023-06-19T06:07:40;100915.00;;;24.01;49.16
56400;BME280;42298;53.638;9.876;2023-06-19T06:10:06;100924.66;;;24.04;49.11
56400;BME280;42298;53.638;9.876;2023-06-19T06:12:34;100918.66;;;24.09;50.15
56400;BME280;42298;53.638;9.876;2023-06-19T06:15:01;100917.06;;;24.08;51.14
56400;BME280;42298;53.638;9.876;2023-06-19T06:17:27;100921.88;;;24.07;51.46
56400;BME280;42298;53.638;9.876;2023-06-19T06:19:53;100915.44;;;24.10;52.00
56400;BME280;42298;53.638;9.876;2023-06-19T06:22:18;100905.78;;;24.08;53.87
56400;BME280;42298;53.638;9.876;2023-06-19T06:24:44;100910.19;;;24.02;52.88
56400;BME280;42298;53.638;9.876;2023-06-19T06:27:09;100922.63;;;24.01;53.95
56400;BME280;42298;53.638;9.876;2023-06-19T06:29:35;100914.94;;;23.91;52.96
56400;BME280;42298;53.638;9.876;2023-06-19T06:32:06;100910.91;;;23.88;53.73
56400;BME280;42298;53.638;9.876;2023-06-19T06:34:33;100912.09;;;23.84;52.98
56400;BME280;42298;53.638;9.876;2023-06-19T06:36:59;100905.63;;;23.76;53.25
56400;BME280;42298;53.638;9.876;2023-06-19T06:39:24;100901.19;;;23.72;52.97
56400;BME280;42298;53.638;9.876;2023-06-19T06:41:50;100897.97;;;23.70;54.10
56400;BME280;42298;53.638;9.876;2023-06-19T06:44:16;100900.78;;;23.70;54.30
56400;BME280;42298;53.638;9.876;2023-06-19T06:46:42;100897.97;;;23.70;54.78
56400;BME280;42298;53.638;9.876;2023-06-19T06:49:07;100882.69;;;23.67;54.47
56400;BME280;42298;53.638;9.876;2023-06-19T06:51:33;100877.81;;;23.61;54.29
56400;BME280;42298;53.638;9.876;2023-06-19T06:53:58;100865.34;;;23.55;54.09
56400;BME280;42298;53.638;9.876;2023-06-19T06:56:24;100868.53;;;23.53;54.00
56400;BME280;42298;53.638;9.876;2023-06-19T06:58:51;100868.94;;;23.48;54.34
56400;BME280;42298;53.638;9.876;2023-06-19T07:01:16;100874.53;;;23.45;54.04
56400;BME280;42298;53.638;9.876;2023-06-19T07:03:41;100872.94;;;23.44;54.27
56400;BME280;42298;53.638;9.876;2023-06-19T07:06:08;100869.38;;;23.61;54.52
56400;BME280;42298;53.638;9.876;2023-06-19T07:08:34;100895.97;;;23.77;53.98
56400;BME280;42298;53.638;9.876;2023-06-19T07:10:59;100895.22;;;23.84;54.36
56400;BME280;42298;53.638;9.876;2023-06-19T07:13:25;100892.44;;;23.91;53.72
56400;BME280;42298;53.638;9.876;2023-06-19T07:15:50;100898.06;;;23.94;53.27
56400;BME280;42298;53.638;9.876;2023-06-19T07:18:16;100897.34;;;24.11;52.38
56400;BME280;42298;53.638;9.876;2023-06-19T07:20:42;100894.56;;;24.15;52.75
56400;BME280;42298;53.638;9.876;2023-06-19T07:23:09;100896.16;;;24.19;52.80
56400;BME280;42298;53.638;9.876;2023-06-19T07:25:34;100885.34;;;24.21;52.01
56400;BME280;42298;53.638;9.876;2023-06-19T07:28:00;100889.31;;;24.20;52.13
56400;BME280;42298;53.638;9.876;2023-06-19T07:30:26;100894.94;;;24.13;51.98
56400;BME280;42298;53.638;9.876;2023-06-19T07:32:52;100884.50;;;24.14;51.98
56400;BME280;42298;53.638;9.876;2023-06-19T07:35:17;100901.81;;;24.19;51.80
56400;BME280;42298;53.638;9.876;2023-06-19T07:37:44;100898.63;;;24.35;52.20
56400;BME280;42298;53.638;9.876;2023-06-19T07:40:10;100905.09;;;24.50;51.25
56400;BME280;42298;53.638;9.876;2023-06-19T07:42:35;100898.25;;;24.51;50.89
56400;BME280;42298;53.638;9.876;2023-06-19T07:45:01;100899.88;;;24.52;51.79
56400;BME280;42298;53.638;9.876;2023-06-19T07:47:27;100896.28;;;24.65;51.38
56400;BME280;42298;53.638;9.876;2023-06-19T07:49:53;100905.53;;;24.66;50.92
56400;BME280;42298;53.638;9.876;2023-06-19T07:52:18;100909.56;;;24.72;51.75
56400;BME280;42298;53.638;9.876;2023-06-19T07:54:54;100919.66;;;24.90;51.44
56400;BME280;42298;53.638;9.876;2023-06-19T07:57:20;100925.28;;;24.94;50.79
56400;BME280;42298;53.638;9.876;2023-06-19T07:59:47;100913.19;;;25.00;51.12
56400;BME280;42298;53.638;9.876;2023-06-19T08:02:12;100921.25;;;25.12;50.40
56400;BME280;42298;53.638;9.876;2023-06-19T08:04:38;100916.81;;;25.22;50.14
56400;BME280;42298;53.638;9.876;2023-06-19T08:07:03;100919.22;;;25.37;50.30
56400;BME280;42298;53.638;9.876;2023-06-19T08:09:28;100926.00;;;25.75;49.35
56400;BME280;42298;53.638;9.876;2023-06-19T08:11:57;100918.66;;;25.95;49.10
56400;BME280;42298;53.638;9.876;2023-06-19T08:14:22;100918.50;;;26.30;48.48
56400;BME280;42298;53.638;9.876;2023-06-19T08:16:47;100919.03;;;26.80;47.66
56400;BME280;42298;53.638;9.876;2023-06-19T08:19:12;100913.94;;;27.08;44.90
56400;BME280;42298;53.638;9.876;2023-06-19T08:21:38;100913.69;;;27.40;44.70
56400;BME280;42298;53.638;9.876;2023-06-19T08:24:03;100916.16;;;27.34;45.16
56400;BME280;42298;53.638;9.876;2023-06-19T08:26:28;100917.72;;;27.39;45.00
56400;BME280;42298;53.638;9.876;2023-06-19T08:28:54;100911.78;;;27.63;44.81
56400;BME280;42298;53.638;9.876;2023-06-19T08:31:19;100916.41;;;27.84;43.56
56400;BME280;42298;53.638;9.876;2023-06-19T08:33:47;100903.13;;;28.11;43.11
56400;BME280;42298;53.638;9.876;2023-06-19T08:36:33;100903.66;;;28.63;42.52
56400;BME280;42298;53.638;9.876;2023-06-19T08:38:58;100895.53;;;28.88;42.22
56400;BME280;42298;53.638;9.876;2023-06-19T08:41:26;100900.00;;;29.12;41.01
56400;BME280;42298;53.638;9.876;2023-06-19T08:43:54;100890.41;;;29.29;40.16
56400;BME280;42298;53.638;9.876;2023-06-19T08:46:19;100900.34;;;29.37;40.43
56400;BME280;42298;53.638;9.876;2023-06-19T08:48:45;100901.59;;;29.36;39.79
56400;BME280;42298;53.638;9.876;2023-06-19T08:51:11;100902.09;;;29.31;39.17
56400;BME280;42298;53.638;9.876;2023-06-19T08:53:47;100901.75;;;29.72;38.96
56400;BME280;42298;53.638;9.876;2023-06-19T08:56:13;100888.13;;;30.02;38.64
56400;BME280;42298;53.638;9.876;2023-06-19T08:58:40;100896.13;;;30.07;37.88
56400;BME280;42298;53.638;9.876;2023-06-19T09:01:06;100898.53;;;30.28;37.30
56400;BME280;42298;53.638;9.876;2023-06-19T09:03:31;100904.78;;;30.39;37.70
56400;BME280;42298;53.638;9.876;2023-06-19T09:06:02;100898.41;;;30.67;36.87
56400;BME280;42298;53.638;9.876;2023-06-19T09:08:28;100903.72;;;31.01;36.95
56400;BME280;42298;53.638;9.876;2023-06-19T09:11:02;100905.56;;;31.40;35.79
56400;BME280;42298;53.638;9.876;2023-06-19T09:13:28;100892.94;;;31.69;36.39
56400;BME280;42298;53.638;9.876;2023-06-19T09:16:02;100896.19;;;31.84;35.56
56400;BME280;42298;53.638;9.876;2023-06-19T09:18:30;100900.66;;;31.85;35.54
56400;BME280;42298;53.638;9.876;2023-06-19T09:20:56;100904.09;;;31.92;35.30
56400;BME280;42298;53.638;9.876;2023-06-19T09:23:23;100900.53;;;32.29;34.75
56400;BME280;42298;53.638;9.876;2023-06-19T09:26:07;100900.91;;;32.56;34.17
56400;BME280;42298;53.638;9.876;2023-06-19T09:28:33;100890.75;;;32.43;34.62
56400;BME280;42298;53.638;9.876;2023-06-19T09:31:00;100890.78;;;32.55;34.32
56400;BME280;42298;53.638;9.876;2023-06-19T09:33:27;100890.59;;;32.34;34.68
56400;BME280;42298;53.638;9.876;2023-06-19T09:35:53;100888.81;;;32.65;34.19
56400;BME280;42298;53.638;9.876;2023-06-19T09:38:22;100892.00;;;32.67;33.61
56400;BME280;42298;53.638;9.876;2023-06-19T09:40:52;100881.06;;;32.78;34.08
56400;BME280;42298;53.638;9.876;2023-06-19T09:43:24;100886.22;;;32.17;34.04
56400;BME280;42298;53.638;9.876;2023-06-19T09:45:54;100884.66;;;32.16;34.49
56400;BME280;42298;53.638;9.876;2023-06-19T09:48:24;100892.06;;;32.26;34.63
56400;BME280;42298;53.638;9.876;2023-06-19T09:50:51;100893.38;;;32.37;34.88
56400;BME280;42298;53.638;9.876;2023-06-19T09:53:19;100898.63;;;32.39;33.97
56400;BME280;42298;53.638;9.876;2023-06-19T09:55:47;100892.56;;;32.37;34.06
56400;BME280;42298;53.638;9.876;2023-06-19T09:58:13;100897.00;;;32.38;34.85
56400;BME280;42298;53.638;9.876;2023-06-19T10:00:39;100907.19;;;32.39;34.56
56400;BME280;42298;53.638;9.876;2023-06-19T10:03:11;100898.44;;;32.17;34.63
56400;BME280;42298;53.638;9.876;2023-06-19T10:05:37;100902.03;;;31.93;35.18
56400;BME280;42298;53.638;9.876;2023-06-19T10:08:02;100902.97;;;32.02;34.53
56400;BME280;42298;53.638;9.876;2023-06-19T10:10:29;100892.22;;;32.35;35.72
56400;BME280;42298;53.638;9.876;2023-06-19T10:12:56;100897.16;;;32.59;34.88
56400;BME280;42298;53.638;9.876;2023-06-19T10:15:25;100893.28;;;32.66;34.47
56400;BME280;42298;53.638;9.876;2023-06-19T10:17:53;100889.34;;;32.22;34.47
56400;BME280;42298;53.638;9.876;2023-06-19T10:20:26;100891.25;;;32.13;34.60
56400;BME280;42298;53.638;9.876;2023-06-19T10:22:55;100888.09;;;32.23;35.27
56400;BME280;42298;53.638;9.876;2023-06-19T10:25:22;100891.34;;;31.97;35.50
56400;BME280;42298;53.638;9.876;2023-06-19T10:27:48;100888.09;;;32.23;35.31
56400;BME280;42298;53.638;9.876;2023-06-19T10:30:18;100883.22;;;32.36;35.42
56400;BME280;42298;53.638;9.876;2023-06-19T10:32:44;100889.25;;;32.63;34.91
56400;BME280;42298;53.638;9.876;2023-06-19T10:35:13;100877.22;;;33.19;34.78
56400;BME280;42298;53.638;9.876;2023-06-19T10:37:39;100881.78;;;33.29;33.41
56400;BME280;42298;53.638;9.876;2023-06-19T10:40:06;100888.69;;;33.53;33.80
56400;BME280;42298;53.638;9.876;2023-06-19T10:42:34;100890.94;;;33.58;33.98
56400;BME280;42298;53.638;9.876;2023-06-19T10:45:07;100891.75;;;33.58;34.30
56400;BME280;42298;53.638;9.876;2023-06-19T10:47:34;100890.25;;;33.88;32.88
56400;BME280;42298;53.638;9.876;2023-06-19T10:49:59;100899.25;;;33.65;33.94
56400;BME280;42298;53.638;9.876;2023-06-19T10:52:24;100897.41;;;33.71;34.10
56400;BME280;42298;53.638;9.876;2023-06-19T10:54:56;100889.91;;;33.86;33.62
56400;BME280;42298;53.638;9.876;2023-06-19T10:57:29;100895.19;;;33.87;33.00
56400;BME280;42298;53.638;9.876;2023-06-19T10:59:54;100899.56;;;33.67;33.61
56400;BME280;42298;53.638;9.876;2023-06-19T11:02:20;100879.03;;;33.59;34.21
56400;BME280;42298;53.638;9.876;2023-06-19T11:04:47;100879.13;;;33.47;33.31
56400;BME280;42298;53.638;9.876;2023-06-19T11:07:13;100877.88;;;33.69;33.37
56400;BME280;42298;53.638;9.876;2023-06-19T11:09:39;100882.53;;;33.97;33.36
56400;BME280;42298;53.638;9.876;2023-06-19T11:12:05;100886.34;;;34.25;33.15
56400;BME280;42298;53.638;9.876;2023-06-19T11:14:48;100887.16;;;34.25;31.67
56400;BME280;42298;53.638;9.876;2023-06-19T11:17:14;100870.91;;;34.44;30.59
56400;BME280;42298;53.638;9.876;2023-06-19T11:19:40;100873.44;;;34.82;30.01
56400;BME280;42298;53.638;9.876;2023-06-19T11:22:08;100873.84;;;35.11;30.28
56400;BME280;42298;53.638;9.876;2023-06-19T11:24:34;100887.16;;;34.96;30.12
56400;BME280;42298;53.638;9.876;2023-06-19T11:26:59;100889.56;;;35.06;29.57
56400;BME280;42298;53.638;9.876;2023-06-19T11:29:26;100888.22;;;35.38;30.06
56400;BME280;42298;53.638;9.876;2023-06-19T11:32:04;100891.72;;;35.60;29.55
56400;BME280;42298;53.638;9.876;2023-06-19T11:34:34;100892.53;;;35.60;29.25
56400;BME280;42298;53.638;9.876;2023-06-19T11:37:22;100885.50;;;35.61;29.75
56400;BME280;42298;53.638;9.876;2023-06-19T11:39:50;100881.06;;;35.60;29.01
56400;BME280;42298;53.638;9.876;2023-06-19T11:42:17;100887.59;;;35.61;29.44
56400;BME280;42298;53.638;9.876;2023-06-19T11:44:55;100882.59;;;35.25;29.65
56400;BME280;42298;53.638;9.876;2023-06-19T11:47:23;100883.84;;;35.06;30.15
56400;BME280;42298;53.638;9.876;2023-06-19T11:49:49;100870.81;;;35.05;30.45
56400;BME280;42298;53.638;9.876;2023-06-19T11:52:15;100883.72;;;35.19;30.46
56400;BME280;42298;53.638;9.876;2023-06-19T11:54:40;100881.47;;;35.14;30.44
56400;BME280;42298;53.638;9.876;2023-06-19T11:57:11;100889.22;;;34.95;30.32
56400;BME280;42298;53.638;9.876;2023-06-19T11:59:39;100884.16;;;34.99;30.44
56400;BME280;42298;53.638;9.876;2023-06-19T12:02:06;100887.50;;;34.98;31.26
56400;BME280;42298;53.638;9.876;2023-06-19T12:04:31;100894.81;;;34.59;30.59
56400;BME280;42298;53.638;9.876;2023-06-19T12:06:56;100882.59;;;34.06;31.29
56400;BME280;42298;53.638;9.876;2023-06-19T12:09:22;100883.19;;;33.80;32.20
56400;BME280;42298;53.638;9.876;2023-06-19T12:11:47;100886.16;;;33.55;32.58
56400;BME280;42298;53.638;9.876;2023-06-19T12:14:13;100882.72;;;33.13;33.42
56400;BME280;42298;53.638;9.876;2023-06-19T12:16:38;100883.78;;;32.94;33.94
56400;BME280;42298;53.638;9.876;2023-06-19T12:19:04;100884.47;;;32.85;33.98
56400;BME280;42298;53.638;9.876;2023-06-19T12:21:29;100893.38;;;32.75;34.46
56400;BME280;42298;53.638;9.876;2023-06-19T12:23:54;100900.34;;;32.74;34.55
56400;BME280;42298;53.638;9.876;2023-06-19T12:26:20;100902.63;;;32.79;34.84
56400;BME280;42298;53.638;9.876;2023-06-19T12:28:45;100908.09;;;32.73;35.20
56400;BME280;42298;53.638;9.876;2023-06-19T12:31:11;100913.56;;;32.68;35.36
56400;BME280;42298;53.638;9.876;2023-06-19T12:33:36;100910.41;;;32.66;35.68
56400;BME280;42298;53.638;9.876;2023-06-19T12:36:04;100911.53;;;32.68;35.33
56400;BME280;42298;53.638;9.876;2023-06-19T12:38:31;100902.63;;;32.66;35.32
56400;BME280;42298;53.638;9.876;2023-06-19T12:40:56;100904.44;;;32.60;35.63
56400;BME280;42298;53.638;9.876;2023-06-19T12:43:21;100914.38;;;32.56;35.80
56400;BME280;42298;53.638;9.876;2023-06-19T12:45:47;100904.56;;;32.44;35.73
56400;BME280;42298;53.638;9.876;2023-06-19T12:48:15;100909.31;;;32.35;36.08
56400;BME280;42298;53.638;9.876;2023-06-19T12:50:40;100915.84;;;32.35;36.44